Главная страница
METAR-TAF:

METAR-TAF

Аэропорты :

Sandane, Норвегия

широта: 61-50N, долгота: 006-07E, высота над уровнем моря: 6 м

Текущие метеонаблюдения

Эта сводка был подготовлена 47 минут назад, в 10:20 UTC
Ветер 3 Узел от западный-юго-западный, изменяющийся между южный-юго-западный и западно-северо-западный
Температура 15°C
Влажность 63%
Давление 1026 hPa
Видимость 10 км и более
небольшая облачность на высоте 4000 фута

METAR: ENSD 091020Z 25003KT 200V290 9999 FEW040 15/08 Q1026 RMK WIND 1138FT VRB03KT

Время: 13:07 (11:07 UTC)


TAF: отсутствует

Метеонаблюдения и прогнозы для более 4000 аэропортов (сводки METAR и TAF).

Имеющиеся станции представлены на карте желтыми и красными точками.

Чтобы увидеть название станции, наведите на нее мышь.

Затем щелкните, чтобы увидеть метеонаблюдения и метеопрогнозы.

Управление картой: чтобы увеличить масштаб, щелкните зеленые кнопки с черным крестиком; чтобы уменьшить масштаб, щелкните зеленую кнопку с тире; для просмотра соседних карт щелкайте зеленые стрелки.


METAR-TAF: